Time;durP1;ratioP1;P1;durP2;ratioP2;P2;SDS_P1;SDS_P2;PMS_P1;PMS_P2;Temp;Humidity;BMP_temperature;BMP_pressure;BME280_temperature;BME280_humidity;BME280_pressure;Samples;Min_cycle;Max_cycle;Signal;HPM_P1;HPM_P2
2022/11/29 00:00:58;;;;;;;13.75;6.30;;;5.50;99.90;;;;;;4977670;28;20557;-60
2022/11/29 00:03:24;;;;;;;14.43;6.60;;;5.50;99.90;;;;;;4977744;28;20034;-60
2022/11/29 00:05:50;;;;;;;11.18;6.80;;;5.50;99.90;;;;;;4970830;28;20394;-60
2022/11/29 00:08:17;;;;;;;13.65;6.07;;;5.50;99.90;;;;;;4968547;28;20038;-60
2022/11/29 00:10:43;;;;;;;17.30;6.53;;;5.60;99.90;;;;;;4974253;28;20037;-60
2022/11/29 00:13:09;;;;;;;13.77;6.68;;;5.60;99.90;;;;;;4981728;28;20027;-60
2022/11/29 00:15:36;;;;;;;12.57;6.45;;;5.60;99.90;;;;;;4977684;28;20062;-60
2022/11/29 00:18:03;;;;;;;13.25;6.72;;;5.60;99.90;;;;;;4977726;28;20026;-59
2022/11/29 00:20:29;;;;;;;16.45;7.00;;;5.70;99.90;;;;;;4982293;28;20446;-60
2022/11/29 00:22:54;;;;;;;16.40;7.97;;;5.60;99.90;;;;;;4974573;28;20023;-60
2022/11/29 00:25:20;;;;;;;17.02;7.97;;;5.60;99.90;;;;;;4975514;28;20077;-61
2022/11/29 00:27:46;;;;;;;14.40;7.43;;;5.60;99.90;;;;;;4983799;28;20019;-60
2022/11/29 00:30:12;;;;;;;13.55;7.68;;;5.60;99.90;;;;;;4971549;28;20565;-60
2022/11/29 00:32:38;;;;;;;14.82;6.53;;;5.50;99.90;;;;;;4978155;28;20054;-60
2022/11/29 00:35:04;;;;;;;18.85;7.65;;;5.50;99.90;;;;;;4978786;28;20054;-60
2022/11/29 00:37:30;;;;;;;15.43;6.80;;;5.50;99.90;;;;;;4983466;28;20054;-60
2022/11/29 00:39:56;;;;;;;13.63;7.28;;;5.40;99.90;;;;;;4975638;28;20066;-60
2022/11/29 00:42:22;;;;;;;16.27;7.18;;;5.50;99.90;;;;;;4970308;28;20031;-61
2022/11/29 00:44:47;;;;;;;19.42;7.55;;;5.60;99.90;;;;;;4984388;28;20554;-60
2022/11/29 00:47:14;;;;;;;16.83;7.88;;;5.60;99.90;;;;;;4980321;28;20051;-60
2022/11/29 00:49:41;;;;;;;14.43;8.48;;;5.70;99.90;;;;;;4974515;28;20045;-60
2022/11/29 00:52:06;;;;;;;15.18;8.63;;;5.70;99.90;;;;;;4968942;28;20105;-60
2022/11/29 00:54:32;;;;;;;19.90;9.15;;;5.80;99.90;;;;;;4987044;28;20061;-60
2022/11/29 00:56:58;;;;;;;19.40;9.32;;;5.70;99.90;;;;;;4976692;28;20030;-61
2022/11/29 00:59:24;;;;;;;19.38;9.20;;;5.70;99.90;;;;;;4977351;28;20398;-60
2022/11/29 01:01:50;;;;;;;23.15;9.60;;;5.70;99.90;;;;;;4981774;28;20050;-60
2022/11/29 01:04:16;;;;;;;17.77;9.07;;;5.70;99.90;;;;;;4971988;28;20101;-60
2022/11/29 01:06:41;;;;;;;20.08;10.00;;;5.70;99.90;;;;;;4968638;28;20034;-60
2022/11/29 01:09:07;;;;;;;18.05;9.48;;;5.60;99.90;;;;;;4970961;28;20077;-59
2022/11/29 01:11:34;;;;;;;24.63;9.63;;;5.60;99.90;;;;;;4976239;28;20038;-60
2022/11/29 01:14:01;;;;;;;21.95;10.23;;;5.50;99.90;;;;;;4978789;28;20031;-61
2022/11/29 01:16:29;;;;;;;19.00;10.20;;;5.50;99.90;;;;;;4980079;28;20433;-60
2022/11/29 01:18:55;;;;;;;21.85;10.30;;;5.50;99.90;;;;;;4982300;28;20081;-60
2022/11/29 01:21:23;;;;;;;15.13;9.27;;;5.40;99.90;;;;;;4983705;28;20487;-60
2022/11/29 01:23:50;;;;;;;20.38;9.30;;;5.50;99.90;;;;;;4976665;28;20034;-60
2022/11/29 01:26:19;;;;;;;26.10;10.63;;;5.40;99.90;;;;;;4980442;28;20499;-60
2022/11/29 01:28:47;;;;;;;23.98;11.20;;;5.50;99.90;;;;;;4983803;28;20038;-65
2022/11/29 01:31:15;;;;;;;33.13;11.80;;;5.60;99.90;;;;;;4983286;28;20112;-61
2022/11/29 01:33:41;;;;;;;25.20;11.35;;;5.60;99.90;;;;;;4975472;28;20391;-61
2022/11/29 01:36:08;;;;;;;24.90;9.68;;;5.70;99.90;;;;;;4967587;28;20118;-61
2022/11/29 01:38:35;;;;;;;23.15;10.15;;;5.70;99.90;;;;;;4971947;28;20039;-59
2022/11/29 01:41:08;;;;;;;21.88;9.68;;;5.70;99.90;;;;;;4967290;28;20029;-59
2022/11/29 01:43:51;;;;;;;22.92;9.25;;;5.60;99.90;;;;;;4976492;28;20491;-60
2022/11/29 01:46:17;;;;;;;18.08;7.93;;;5.60;99.90;;;;;;4983206;28;20131;-60
2022/11/29 01:48:43;;;;;;;18.55;7.30;;;5.60;99.90;;;;;;4972739;28;20070;-60
2022/11/29 01:51:09;;;;;;;21.17;8.05;;;5.60;99.90;;;;;;4976753;28;20486;-60
2022/11/29 01:53:35;;;;;;;21.90;7.22;;;5.60;99.90;;;;;;4981360;28;20035;-61
2022/11/29 01:56:04;;;;;;;18.52;7.45;;;5.60;99.90;;;;;;4978447;28;20101;-60
2022/11/29 01:58:32;;;;;;;18.60;7.13;;;5.60;99.90;;;;;;4974213;28;20031;-58
2022/11/29 02:00:58;;;;;;;21.13;6.88;;;5.60;99.90;;;;;;4977866;28;20037;-59
2022/11/29 02:03:24;;;;;;;19.65;7.35;;;5.60;99.90;;;;;;4982521;28;20050;-60
2022/11/29 02:05:51;;;;;;;17.92;7.40;;;5.60;99.90;;;;;;4977243;28;20023;-60
2022/11/29 02:08:24;;;;;;;19.70;7.47;;;5.70;99.90;;;;;;4977276;28;20068;-59
2022/11/29 02:11:24;;;;;;;23.92;7.93;;;5.70;99.90;;;;;;4974363;28;20060;-59
2022/11/29 02:14:33;;;;;;;24.48;7.65;;;5.80;99.90;;;;;;4969202;28;20035;-61
2022/11/29 02:17:05;;;;;;;19.08;8.80;;;5.80;99.90;;;;;;4977447;28;20022;-61
2022/11/29 02:20:10;;;;;;;22.13;8.48;;;5.80;99.90;;;;;;4965068;28;20035;-60
2022/11/29 02:23:04;;;;;;;30.20;8.65;;;5.90;99.90;;;;;;4970683;28;20084;-59
2022/11/29 02:25:45;;;;;;;28.90;8.43;;;5.90;99.90;;;;;;4950505;28;20043;-60
2022/11/29 02:28:40;;;;;;;25.40;9.10;;;5.90;99.90;;;;;;4977676;28;20033;-59
2022/11/29 02:31:34;;;;;;;29.65;9.48;;;6.00;99.90;;;;;;4973564;28;20039;-60
2022/11/29 02:34:06;;;;;;;29.98;9.80;;;6.00;99.90;;;;;;4973439;28;20026;-60
2022/11/29 02:36:37;;;;;;;31.80;8.88;;;6.00;99.90;;;;;;4974993;28;20035;-60
2022/11/29 02:39:09;;;;;;;42.17;10.70;;;6.00;99.90;;;;;;4970529;28;20027;-60
2022/11/29 02:41:45;;;;;;;32.78;10.20;;;6.10;99.90;;;;;;4974821;28;20034;-60
2022/11/29 02:44:31;;;;;;;34.50;9.88;;;6.10;99.90;;;;;;4972287;28;20097;-60
2022/11/29 02:47:24;;;;;;;43.05;10.70;;;6.20;99.90;;;;;;4973742;28;20110;-60
2022/11/29 02:50:15;;;;;;;34.35;10.13;;;6.20;99.90;;;;;;4971422;28;20031;-60
2022/11/29 02:53:14;;;;;;;35.17;9.57;;;6.20;99.90;;;;;;4965263;28;20511;-60
2022/11/29 02:55:50;;;;;;;35.17;10.05;;;6.20;99.90;;;;;;4973960;28;20479;-61
2022/11/29 02:58:35;;;;;;;35.58;10.43;;;6.20;99.90;;;;;;4980466;28;20042;-60
2022/11/29 03:01:33;;;;;;;34.80;9.68;;;6.20;99.90;;;;;;4974479;28;20023;-60
2022/11/29 03:04:05;;;;;;;31.90;8.85;;;6.20;99.90;;;;;;4977969;28;20149;-60
2022/11/29 03:06:54;;;;;;;43.85;11.05;;;6.20;99.90;;;;;;4977679;28;20133;-60
2022/11/29 03:09:42;;;;;;;40.65;10.20;;;6.20;99.90;;;;;;4968111;28;20612;-60
2022/11/29 03:12:37;;;;;;;47.75;10.77;;;6.30;99.90;;;;;;4969875;28;20026;-61
2022/11/29 03:15:21;;;;;;;40.60;9.70;;;6.20;99.90;;;;;;4973640;28;20475;-60
2022/11/29 03:17:59;;;;;;;37.88;11.02;;;6.30;99.90;;;;;;4964212;28;20041;-60
2022/11/29 03:20:28;;;;;;;40.28;11.45;;;6.30;99.90;;;;;;4965123;28;20035;-61
2022/11/29 03:23:16;;;;;;;46.92;10.73;;;6.30;99.90;;;;;;4971277;28;20397;-60
2022/11/29 03:25:48;;;;;;;42.42;11.20;;;6.30;99.90;;;;;;4971471;28;20085;-61
2022/11/29 03:28:29;;;;;;;33.30;10.30;;;6.30;99.90;;;;;;4972888;28;20039;-60
2022/11/29 03:31:03;;;;;;;39.88;10.93;;;6.30;99.90;;;;;;4965619;28;20499;-59
2022/11/29 03:34:03;;;;;;;42.15;10.68;;;6.30;99.90;;;;;;4978675;28;20022;-60
2022/11/29 03:36:38;;;;;;;37.47;10.25;;;6.30;99.90;;;;;;4979105;28;20515;-60
2022/11/29 03:39:10;;;;;;;36.05;11.25;;;6.30;99.90;;;;;;4974627;28;20037;-59
2022/11/29 03:41:47;;;;;;;44.38;10.80;;;6.30;99.90;;;;;;4977445;28;20515;-59
2022/11/29 03:44:16;;;;;;;45.90;10.93;;;6.30;99.90;;;;;;4966681;28;20039;-60
2022/11/29 03:47:08;;;;;;;41.63;11.68;;;6.30;99.90;;;;;;4982041;28;20089;-59
2022/11/29 03:49:41;;;;;;;30.40;9.02;;;6.40;99.90;;;;;;4974813;28;20049;-59
2022/11/29 03:52:13;;;;;;;46.00;11.20;;;6.40;99.90;;;;;;4980371;28;20070;-59
2022/11/29 03:55:09;;;;;;;45.78;10.75;;;6.40;99.90;;;;;;4972572;28;20030;-59
2022/11/29 03:58:04;;;;;;;51.08;11.52;;;6.40;99.90;;;;;;4977552;28;20037;-60
2022/11/29 04:00:46;;;;;;;45.63;11.85;;;6.40;99.90;;;;;;4973734;28;20054;-59
2022/11/29 04:03:27;;;;;;;46.70;11.80;;;6.40;99.90;;;;;;4973857;28;20046;-59
2022/11/29 04:06:20;;;;;;;43.30;11.13;;;6.40;99.90;;;;;;4965054;28;20043;-61
2022/11/29 04:09:23;;;;;;;42.05;11.43;;;6.40;99.90;;;;;;4970865;28;20078;-61
2022/11/29 04:12:19;;;;;;;46.55;11.02;;;6.40;99.90;;;;;;4971730;28;20034;-60
2022/11/29 04:15:22;;;;;;;46.47;11.40;;;6.50;99.90;;;;;;4972442;28;20084;-60
2022/11/29 04:18:15;;;;;;;51.05;11.57;;;6.50;99.90;;;;;;4971786;28;20380;-60
2022/11/29 04:21:00;;;;;;;39.70;10.55;;;6.50;99.90;;;;;;4978326;28;21098;-60
2022/11/29 04:24:14;;;;;;;45.33;12.18;;;6.40;99.90;;;;;;4974420;28;20085;-61
2022/11/29 04:26:59;;;;;;;44.85;10.57;;;6.50;99.90;;;;;;4944867;28;20050;-59
2022/11/29 04:29:43;;;;;;;48.70;10.93;;;6.50;99.90;;;;;;4946760;28;20182;-62
2022/11/29 04:32:52;;;;;;;44.78;11.63;;;6.40;99.90;;;;;;4948633;29;20042;-61
2022/11/29 04:35:42;;;;;;;41.17;11.65;;;6.50;99.90;;;;;;4949511;29;20039;-59
2022/11/29 04:38:34;;;;;;;51.47;12.55;;;6.40;99.90;;;;;;4949771;28;20038;-60
2022/11/29 04:41:06;;;;;;;44.05;11.05;;;6.40;99.90;;;;;;4924844;29;20043;-60
2022/11/29 04:43:49;;;;;;;50.85;11.05;;;6.50;99.90;;;;;;4946813;28;20048;-60
2022/11/29 04:46:53;;;;;;;47.38;11.90;;;6.50;99.90;;;;;;4945555;28;20031;-60
2022/11/29 04:49:35;;;;;;;46.78;11.35;;;6.50;99.90;;;;;;4948069;28;20039;-61
2022/11/29 04:52:16;;;;;;;46.67;11.43;;;6.50;99.90;;;;;;4939621;29;20054;-60
2022/11/29 04:54:56;;;;;;;51.67;11.27;;;6.50;99.90;;;;;;4947756;28;20134;-61
2022/11/29 04:57:46;;;;;;;53.22;12.50;;;6.50;99.90;;;;;;4944023;29;20069;-60
2022/11/29 05:00:20;;;;;;;44.38;11.10;;;6.50;99.90;;;;;;4955528;28;20041;-61
2022/11/29 05:02:58;;;;;;;52.92;11.30;;;6.50;99.90;;;;;;4960627;28;20078;-60
2022/11/29 05:05:45;;;;;;;52.10;12.18;;;6.60;99.90;;;;;;4976179;28;20061;-61
2022/11/29 05:08:43;;;;;;;50.38;11.80;;;6.60;99.90;;;;;;4984186;28;20030;-60
2022/11/29 05:11:30;;;;;;;59.90;12.80;;;6.60;99.90;;;;;;4975863;28;20050;-61
2022/11/29 05:14:38;;;;;;;47.05;11.10;;;6.60;99.90;;;;;;4977289;28;20046;-60
2022/11/29 05:17:32;;;;;;;58.58;13.00;;;6.60;99.90;;;;;;4982935;28;20026;-59
2022/11/29 05:20:17;;;;;;;49.33;11.80;;;6.70;99.90;;;;;;4971235;28;20030;-60
2022/11/29 05:23:15;;;;;;;49.65;12.98;;;6.70;99.90;;;;;;4964944;28;20502;-59
2022/11/29 05:26:02;;;;;;;52.15;11.70;;;6.70;99.90;;;;;;4940719;29;20046;-60
2022/11/29 05:28:40;;;;;;;49.40;13.65;;;6.70;99.90;;;;;;4937932;29;20066;-61
2022/11/29 05:31:28;;;;;;;47.05;11.88;;;6.70;99.90;;;;;;4949130;28;20042;-60
2022/11/29 05:34:24;;;;;;;54.85;14.75;;;6.70;99.90;;;;;;4949378;28;20079;-60
2022/11/29 05:37:24;;;;;;;48.88;13.45;;;6.80;99.90;;;;;;4935610;29;20125;-60
2022/11/29 05:39:50;;;;;;;63.60;14.45;;;6.80;99.90;;;;;;4932838;28;20082;-60
2022/11/29 05:42:43;;;;;;;57.42;13.98;;;6.80;99.90;;;;;;4940400;29;20491;-60
2022/11/29 05:45:17;;;;;;;60.47;13.50;;;6.80;99.90;;;;;;4946582;28;20032;-60
2022/11/29 05:47:58;;;;;;;59.55;14.23;;;6.90;99.90;;;;;;4947176;29;20518;-60
2022/11/29 05:50:59;;;;;;;46.85;13.43;;;6.90;99.90;;;;;;4947192;28;20071;-60
2022/11/29 05:53:46;;;;;;;59.97;15.20;;;6.90;99.90;;;;;;4941187;29;20046;-60
2022/11/29 05:56:37;;;;;;;47.72;14.05;;;7.00;99.90;;;;;;4941825;28;20039;-61
2022/11/29 05:59:14;;;;;;;50.15;15.50;;;7.00;99.90;;;;;;4946343;29;20040;-60
2022/11/29 06:02:05;;;;;;;59.10;15.10;;;7.00;99.90;;;;;;4962611;28;20043;-60
2022/11/29 06:04:39;;;;;;;56.95;15.50;;;7.00;99.90;;;;;;4973686;28;20458;-60
2022/11/29 06:07:12;;;;;;;58.55;16.50;;;7.10;99.90;;;;;;4977904;28;20054;-59
2022/11/29 06:09:42;;;;;;;57.65;16.23;;;7.10;99.90;;;;;;4973778;28;20047;-59
2022/11/29 06:12:22;;;;;;;56.53;17.05;;;7.10;99.90;;;;;;4978336;28;20055;-60
2022/11/29 06:15:01;;;;;;;47.50;15.55;;;7.10;99.90;;;;;;4966127;28;20430;-60
2022/11/29 06:17:51;;;;;;;50.83;17.90;;;7.10;99.90;;;;;;4971738;28;20027;-61
2022/11/29 06:20:35;;;;;;;47.65;15.13;;;7.20;99.90;;;;;;4979431;28;20074;-59
2022/11/29 06:23:35;;;;;;;42.10;13.65;;;7.20;99.90;;;;;;4977889;28;20038;-60
2022/11/29 06:26:28;;;;;;;43.50;13.60;;;7.20;99.90;;;;;;4980536;28;20035;-60
2022/11/29 06:29:31;;;;;;;45.38;14.32;;;7.20;99.90;;;;;;4966873;28;20137;-60
2022/11/29 06:32:18;;;;;;;48.22;15.75;;;7.20;99.90;;;;;;4977251;28;20174;-59
2022/11/29 06:34:58;;;;;;;47.60;16.35;;;7.20;99.90;;;;;;4968123;28;20034;-60
2022/11/29 06:37:45;;;;;;;47.72;15.15;;;7.20;99.90;;;;;;4978604;28;20245;-61
2022/11/29 06:40:13;;;;;;;40.60;14.02;;;7.30;99.90;;;;;;4975477;28;20050;-60
2022/11/29 06:42:39;;;;;;;41.90;15.68;;;7.30;99.90;;;;;;4979952;28;20390;-60
2022/11/29 06:45:05;;;;;;;43.40;14.75;;;7.30;99.90;;;;;;4972031;28;20031;-59
2022/11/29 06:47:58;;;;;;;49.05;14.93;;;7.40;99.90;;;;;;4978134;28;20109;-60
2022/11/29 06:50:44;;;;;;;47.97;15.32;;;7.50;99.90;;;;;;4968569;28;20047;-60
2022/11/29 06:53:24;;;;;;;47.30;15.10;;;7.50;99.90;;;;;;4971352;28;20471;-61
2022/11/29 06:56:28;;;;;;;45.13;14.52;;;7.50;99.90;;;;;;4968837;28;20463;-60
2022/11/29 06:59:15;;;;;;;38.67;14.30;;;7.50;99.90;;;;;;4949737;29;20043;-59
2022/11/29 07:01:48;;;;;;;45.65;15.70;;;7.50;99.90;;;;;;4946971;28;20054;-60
2022/11/29 07:04:33;;;;;;;42.83;15.25;;;7.60;99.90;;;;;;4948993;28;20035;-59
2022/11/29 07:06:59;;;;;;;41.03;15.25;;;7.60;99.90;;;;;;4945659;28;20070;-59
2022/11/29 07:09:30;;;;;;;43.05;16.10;;;7.60;99.90;;;;;;4946744;28;20039;-59
2022/11/29 07:11:57;;;;;;;45.20;14.80;;;7.60;99.90;;;;;;4949346;28;20027;-60
2022/11/29 07:14:22;;;;;;;36.63;14.10;;;7.60;99.90;;;;;;4948556;29;20039;-62
2022/11/29 07:17:06;;;;;;;37.63;15.52;;;7.60;99.90;;;;;;4950217;28;20122;-59
2022/11/29 07:20:06;;;;;;;38.80;14.07;;;7.60;99.90;;;;;;4946063;29;20504;-59
2022/11/29 07:22:53;;;;;;;36.47;14.20;;;7.70;99.90;;;;;;4942105;29;20416;-60
2022/11/29 07:25:28;;;;;;;34.63;13.82;;;7.70;99.90;;;;;;4949205;29;20064;-60
2022/11/29 07:28:20;;;;;;;33.22;14.20;;;7.70;99.90;;;;;;4949295;28;20047;-60
2022/11/29 07:30:46;;;;;;;;;;;7.70;99.90;;;;;;4944988;29;20179;-60
2022/11/29 07:33:19;;;;;;;32.63;13.13;;;7.80;99.90;;;;;;4961505;28;19910;-60
2022/11/29 07:36:23;;;;;;;35.67;13.90;;;7.70;99.90;;;;;;4972511;28;20049;-60
2022/11/29 07:39:19;;;;;;;41.65;16.05;;;7.70;99.90;;;;;;4943686;29;20106;-60
2022/11/29 07:42:00;;;;;;;33.55;14.05;;;7.80;99.90;;;;;;4948304;28;20027;-60
2022/11/29 07:44:55;;;;;;;39.50;15.05;;;7.80;99.90;;;;;;4947396;29;20570;-60
2022/11/29 07:47:21;;;;;;;39.15;15.90;;;7.80;99.90;;;;;;4944874;28;20050;-60
2022/11/29 07:49:46;;;;;;;39.42;15.98;;;7.80;99.90;;;;;;4946313;29;20051;-60
2022/11/29 07:52:15;;;;;;;41.60;15.95;;;7.80;99.90;;;;;;4949553;28;20027;-60
2022/11/29 07:54:41;;;;;;;37.33;15.07;;;7.90;99.90;;;;;;4942315;28;20499;-60
2022/11/29 07:57:07;;;;;;;36.25;14.88;;;7.80;99.90;;;;;;4944891;28;20019;-60
2022/11/29 07:59:33;;;;;;;41.40;15.05;;;7.90;99.90;;;;;;4943591;28;20150;-61
2022/11/29 08:01:58;;;;;;;35.50;14.95;;;7.80;99.90;;;;;;4950037;28;20117;-61
2022/11/29 08:04:24;;;;;;;38.45;15.40;;;7.80;99.90;;;;;;4945164;28;20118;-60
2022/11/29 08:06:50;;;;;;;32.28;14.65;;;7.80;99.90;;;;;;4948320;28;20019;-61
2022/11/29 08:09:16;;;;;;;34.95;14.07;;;7.80;99.90;;;;;;4948832;29;20043;-61
2022/11/29 08:11:43;;;;;;;35.53;14.40;;;7.90;99.90;;;;;;4946013;29;20576;-60
2022/11/29 08:14:09;;;;;;;37.28;14.07;;;7.90;99.90;;;;;;4948399;28;20153;-60
2022/11/29 08:16:36;;;;;;;29.02;14.40;;;7.90;99.90;;;;;;4964689;28;20031;-60
2022/11/29 08:19:01;;;;;;;35.40;13.40;;;7.80;99.90;;;;;;4972899;28;20042;-61
2022/11/29 08:21:27;;;;;;;29.88;13.65;;;7.90;99.90;;;;;;4968810;28;20386;-61
2022/11/29 08:23:53;;;;;;;28.27;14.02;;;7.90;99.90;;;;;;4968321;28;20042;-62
2022/11/29 08:26:20;;;;;;;31.75;14.43;;;7.90;99.90;;;;;;4968959;28;20034;-61
2022/11/29 08:28:51;;;;;;;30.00;13.23;;;8.00;99.90;;;;;;4975495;28;20035;-60
2022/11/29 08:31:17;;;;;;;26.80;12.85;;;8.00;99.90;;;;;;4974958;28;20450;-61
2022/11/29 08:33:45;;;;;;;31.35;12.60;;;8.00;99.90;;;;;;4975015;28;20573;-61
2022/11/29 08:36:17;;;;;;;26.83;11.45;;;8.00;99.90;;;;;;4973158;28;20394;-59
2022/11/29 08:38:44;;;;;;;24.75;11.23;;;8.00;99.90;;;;;;4966319;28;20443;-61
2022/11/29 08:41:12;;;;;;;30.00;11.93;;;8.10;99.90;;;;;;4975066;28;20098;-61
2022/11/29 08:43:39;;;;;;;27.83;12.35;;;8.10;99.90;;;;;;4969819;28;20545;-61
2022/11/29 08:46:05;;;;;;;25.00;11.73;;;8.10;99.90;;;;;;4969384;28;20046;-61
2022/11/29 08:48:31;;;;;;;24.70;10.93;;;8.10;99.90;;;;;;4972968;28;20039;-61
2022/11/29 08:50:57;;;;;;;23.95;11.82;;;8.20;99.90;;;;;;4973361;28;20033;-61
2022/11/29 08:53:42;;;;;;;27.48;11.80;;;8.30;99.90;;;;;;4975023;28;20038;-61
2022/11/29 08:56:17;;;;;;;30.80;11.75;;;8.30;99.90;;;;;;4971571;28;20035;-60
2022/11/29 08:58:44;;;;;;;22.92;11.23;;;8.30;99.90;;;;;;4972024;28;20027;-60
2022/11/29 09:01:20;;;;;;;23.48;11.27;;;8.20;99.90;;;;;;4967717;28;20121;-60
2022/11/29 09:04:06;;;;;;;26.15;11.75;;;8.30;99.90;;;;;;4973903;28;20030;-60
2022/11/29 09:06:37;;;;;;;23.52;11.50;;;8.30;99.90;;;;;;4969905;28;20045;-60
2022/11/29 09:09:04;;;;;;;23.23;11.07;;;8.30;99.90;;;;;;4978494;28;20035;-60
2022/11/29 09:11:32;;;;;;;27.83;12.05;;;8.30;99.90;;;;;;4978995;28;20035;-61
2022/11/29 09:14:01;;;;;;;27.80;11.30;;;8.30;99.90;;;;;;4963384;28;20023;-61
2022/11/29 09:16:29;;;;;;;22.17;11.02;;;8.40;99.90;;;;;;4966141;28;20066;-60
2022/11/29 09:18:56;;;;;;;23.23;10.48;;;8.40;99.90;;;;;;4976613;28;20118;-61
2022/11/29 09:21:26;;;;;;;28.10;11.32;;;8.40;99.90;;;;;;4968920;28;20035;-60
2022/11/29 09:23:57;;;;;;;24.23;10.55;;;8.40;99.90;;;;;;4961766;28;20026;-60
2022/11/29 09:26:29;;;;;;;28.13;11.45;;;8.40;99.90;;;;;;4977534;28;20487;-61
2022/11/29 09:28:59;;;;;;;25.63;11.73;;;8.50;99.90;;;;;;4970280;28;20046;-62
2022/11/29 09:31:27;;;;;;;24.52;10.88;;;8.50;99.90;;;;;;4964508;28;20039;-62
2022/11/29 09:33:54;;;;;;;22.00;11.15;;;8.50;99.90;;;;;;4968412;28;20030;-61
2022/11/29 09:36:20;;;;;;;19.80;10.68;;;8.60;99.90;;;;;;4972942;28;20057;-61
2022/11/29 09:38:46;;;;;;;24.85;11.68;;;8.60;99.90;;;;;;4970406;28;20105;-61
2022/11/29 09:41:21;;;;;;;25.27;12.15;;;8.60;99.90;;;;;;4972288;28;20158;-60
2022/11/29 09:43:53;;;;;;;25.73;10.85;;;8.70;99.90;;;;;;4968294;28;20541;-62
2022/11/29 09:46:21;;;;;;;26.65;11.27;;;8.70;99.90;;;;;;4963280;28;20038;-61
2022/11/29 09:49:18;;;;;;;24.33;10.90;;;8.70;99.90;;;;;;4970282;28;20109;-61
2022/11/29 09:52:14;;;;;;;20.55;9.77;;;8.70;99.90;;;;;;4971657;28;20043;-60
2022/11/29 09:54:43;;;;;;;20.75;10.07;;;8.60;99.90;;;;;;4967249;28;20023;-61
2022/11/29 09:57:09;;;;;;;38.08;11.75;;;8.60;99.90;;;;;;4972346;28;20530;-62
2022/11/29 09:59:41;;;;;;;22.02;10.63;;;8.50;99.90;;;;;;4970313;28;20134;-61
2022/11/29 10:02:31;;;;;;;30.40;11.73;;;8.50;99.90;;;;;;4971135;28;20039;-58
2022/11/29 10:05:20;;;;;;;23.55;10.40;;;8.50;99.90;;;;;;4969641;28;20031;-59
2022/11/29 10:07:57;;;;;;;25.52;11.50;;;8.40;99.90;;;;;;4968379;28;20031;-58
2022/11/29 10:10:47;;;;;;;23.48;10.65;;;8.50;99.90;;;;;;4966084;28;20047;-59
2022/11/29 10:13:32;;;;;;;23.67;10.82;;;8.40;99.90;;;;;;4971650;28;20557;-59
2022/11/29 10:16:06;;;;;;;23.33;9.93;;;8.40;99.90;;;;;;4969721;28;20046;-59
2022/11/29 10:18:37;;;;;;;37.42;11.70;;;8.50;99.90;;;;;;4962973;28;20052;-59
2022/11/29 10:21:29;;;;;;;23.23;10.45;;;8.50;99.90;;;;;;4969059;28;20035;-60
2022/11/29 10:24:03;;;;;;;22.73;10.35;;;8.50;99.90;;;;;;4970697;28;20026;-60
2022/11/29 10:26:30;;;;;;;24.30;9.93;;;8.50;99.90;;;;;;4968895;28;20041;-59
2022/11/29 10:28:57;;;;;;;19.88;10.18;;;8.60;99.90;;;;;;4969364;28;20046;-58
2022/11/29 10:31:26;;;;;;;21.92;10.45;;;8.60;99.90;;;;;;4970176;28;20125;-59
2022/11/29 10:33:53;;;;;;;25.17;10.20;;;8.60;99.90;;;;;;4969621;28;20019;-58
2022/11/29 10:36:37;;;;;;;24.02;10.10;;;8.70;99.90;;;;;;4968166;28;20030;-59
2022/11/29 10:39:24;;;;;;;18.20;9.68;;;8.70;99.90;;;;;;4968156;28;20050;-59
2022/11/29 10:41:58;;;;;;;20.25;9.57;;;8.70;99.90;;;;;;4965591;28;20086;-60
2022/11/29 10:44:25;;;;;;;19.95;10.13;;;8.70;99.90;;;;;;4967279;28;20050;-59
2022/11/29 10:46:52;;;;;;;24.00;10.10;;;8.70;99.90;;;;;;4968717;28;20027;-60
2022/11/29 10:49:22;;;;;;;19.08;9.38;;;8.70;99.90;;;;;;4971989;28;20039;-60
2022/11/29 10:51:47;;;;;;;17.27;9.95;;;8.70;99.90;;;;;;4968385;28;20070;-59
2022/11/29 10:54:18;;;;;;;21.63;8.95;;;8.70;99.90;;;;;;4973802;28;20479;-59
2022/11/29 10:56:45;;;;;;;19.75;9.02;;;8.70;99.90;;;;;;4969416;28;20014;-58
2022/11/29 10:59:28;;;;;;;23.13;10.07;;;8.70;99.90;;;;;;4966074;28;20023;-58
2022/11/29 11:01:56;;;;;;;22.67;9.10;;;8.80;99.90;;;;;;4970926;28;20097;-58
2022/11/29 11:04:46;;;;;;;17.85;8.88;;;8.70;99.90;;;;;;4969393;28;20034;-59
2022/11/29 11:07:28;;;;;;;13.80;7.30;;;8.70;99.90;;;;;;4963030;28;20510;-59
2022/11/29 11:09:55;;;;;;;;;;;8.70;99.90;;;;;;4968458;28;20103;-59
2022/11/29 11:12:26;;;;;;;16.35;8.52;;;8.70;99.90;;;;;;4969539;28;19914;-58
2022/11/29 11:15:23;;;;;;;19.90;8.85;;;8.70;99.90;;;;;;4968101;28;20065;-58
2022/11/29 11:18:02;;;;;;;16.35;8.10;;;8.80;99.90;;;;;;4967861;28;20447;-59
2022/11/29 11:20:31;;;;;;;13.90;7.43;;;8.90;99.90;;;;;;4972447;28;20109;-59
2022/11/29 11:23:00;;;;;;;20.00;9.43;;;8.90;99.90;;;;;;4968723;28;20034;-58
2022/11/29 11:25:34;;;;;;;17.77;7.85;;;9.00;99.90;;;;;;4965105;28;20030;-59
2022/11/29 11:28:24;;;;;;;15.45;7.00;;;9.00;99.90;;;;;;4969506;28;20081;-59
2022/11/29 11:31:04;;;;;;;15.70;7.70;;;8.90;99.90;;;;;;4968473;28;20051;-60
2022/11/29 11:33:37;;;;;;;12.95;6.90;;;8.90;99.90;;;;;;4964723;28;20026;-59
2022/11/29 11:36:25;;;;;;;15.98;8.27;;;8.90;99.90;;;;;;4971019;28;20030;-59
2022/11/29 11:38:56;;;;;;;13.18;6.90;;;8.90;99.90;;;;;;4967246;28;20035;-59
2022/11/29 11:44:39;;;;;;;18.60;8.48;;;8.70;99.90;;;;;;4969178;28;20062;-59
2022/11/29 11:47:14;;;;;;;14.55;7.50;;;8.70;99.90;;;;;;4970937;28;20390;-59
2022/11/29 11:49:47;;;;;;;12.68;7.18;;;8.70;99.90;;;;;;4965362;28;20050;-59
2022/11/29 11:52:19;;;;;;;12.95;7.78;;;8.70;99.90;;;;;;4970500;28;20102;-58
2022/11/29 11:54:49;;;;;;;14.13;7.50;;;8.70;99.90;;;;;;4964960;28;20121;-60
2022/11/29 11:57:17;;;;;;;11.73;7.35;;;8.70;99.90;;;;;;4967589;28;20777;-58
2022/11/29 11:59:50;;;;;;;13.88;7.97;;;8.70;99.90;;;;;;4961618;28;20046;-59
2022/11/29 12:02:29;;;;;;;12.15;6.70;;;8.70;99.90;;;;;;4966434;28;20030;-59
2022/11/29 12:04:59;;;;;;;12.20;7.00;;;8.80;99.90;;;;;;4967667;28;20054;-59
2022/11/29 12:08:06;;;;;;;13.05;6.20;;;8.80;99.90;;;;;;4965762;28;20050;-64
2022/11/29 12:10:33;;;;;;;16.35;7.38;;;8.70;99.90;;;;;;4887947;29;20056;-59
2022/11/29 12:13:00;;;;;;;16.55;7.85;;;8.70;99.90;;;;;;4888841;29;20168;-58
2022/11/29 12:15:33;;;;;;;11.80;7.72;;;8.70;99.90;;;;;;4888230;29;20126;-59
2022/11/29 12:18:12;;;;;;;10.82;7.18;;;8.70;99.90;;;;;;4889403;29;20021;-62
2022/11/29 12:20:45;;;;;;;12.75;7.25;;;8.70;99.90;;;;;;4885200;29;20051;-59
2022/11/29 12:23:20;;;;;;;13.40;7.32;;;8.70;99.90;;;;;;4886444;29;20037;-58
2022/11/29 12:26:18;;;;;;;12.77;8.40;;;8.70;99.90;;;;;;4885557;29;20040;-60
2022/11/29 12:28:45;;;;;;;15.20;8.57;;;8.80;99.90;;;;;;4884743;29;20444;-63
2022/11/29 12:31:35;;;;;;;14.18;7.75;;;8.80;99.90;;;;;;4888407;29;20043;-58
2022/11/29 12:34:48;;;;;;;11.55;7.15;;;8.80;99.90;;;;;;4888121;29;20216;-59
2022/11/29 12:37:40;;;;;;;12.15;6.57;;;8.90;99.90;;;;;;4885477;29;20465;-58
2022/11/29 12:40:33;;;;;;;11.73;6.22;;;8.90;99.90;;;;;;4886843;28;20080;-59
2022/11/29 12:42:59;;;;;;;11.13;7.13;;;8.80;99.90;;;;;;4966753;28;20077;-59
2022/11/29 12:45:47;;;;;;;12.88;6.88;;;8.80;99.90;;;;;;4969233;28;20039;-60
2022/11/29 12:48:38;;;;;;;14.20;7.88;;;8.80;99.90;;;;;;4968536;28;20030;-60
2022/11/29 12:51:08;;;;;;;14.20;7.45;;;8.80;99.90;;;;;;4966267;28;20043;-60
2022/11/29 12:53:43;;;;;;;15.25;8.38;;;8.90;99.90;;;;;;4964542;28;20474;-59
2022/11/29 12:56:31;;;;;;;14.63;8.45;;;8.90;99.90;;;;;;4964204;28;20031;-59
2022/11/29 12:59:36;;;;;;;13.55;7.65;;;8.90;99.90;;;;;;4964061;28;20033;-59
2022/11/29 13:02:42;;;;;;;16.33;6.88;;;8.80;99.90;;;;;;4928362;29;21473;-61
2022/11/29 13:05:17;;;;;;;13.27;7.85;;;8.80;99.90;;;;;;4933677;29;20058;-60
2022/11/29 13:07:57;;;;;;;14.02;7.45;;;8.80;99.90;;;;;;4933008;29;20511;-63
2022/11/29 13:10:37;;;;;;;11.60;7.10;;;8.90;99.90;;;;;;4928746;29;20119;-60
2022/11/29 13:13:03;;;;;;;16.40;7.82;;;8.80;99.90;;;;;;4932072;29;20404;-58
2022/11/29 13:15:43;;;;;;;14.40;7.32;;;8.80;99.90;;;;;;4930494;29;20035;-61
2022/11/29 13:18:18;;;;;;;12.77;6.85;;;8.70;99.90;;;;;;4935578;28;20107;-59
2022/11/29 13:21:10;;;;;;;14.50;7.72;;;8.70;99.90;;;;;;4928664;29;20043;-60
2022/11/29 13:24:14;;;;;;;16.63;7.63;;;8.80;99.90;;;;;;4921286;29;20051;-59
2022/11/29 13:26:42;;;;;;;11.50;6.68;;;8.80;99.90;;;;;;4868259;29;20250;-59
2022/11/29 13:29:13;;;;;;;10.63;7.20;;;8.80;99.90;;;;;;4937768;29;20043;-59
2022/11/29 13:31:39;;;;;;;16.65;8.10;;;8.70;99.90;;;;;;4935120;28;20114;-60
2022/11/29 13:34:20;;;;;;;13.70;7.78;;;8.70;99.90;;;;;;4967967;28;20115;-59
2022/11/29 13:37:01;;;;;;;15.60;8.15;;;8.60;99.90;;;;;;4972422;28;20031;-60